sensor_id;sensor_type;location;lat;lon;timestamp;pressure;altitude;pressure_sealevel;temperature;humidity
71915;BME280;60387;49.994;14.660;2022-10-31T00:01:00;98178.38;;;13.21;63.72
71915;BME280;60387;49.994;14.660;2022-10-31T00:03:34;98179.00;;;13.18;63.79
71915;BME280;60387;49.994;14.660;2022-10-31T00:06:07;98174.78;;;13.12;64.29
71915;BME280;60387;49.994;14.660;2022-10-31T00:08:40;98179.25;;;13.08;64.46
71915;BME280;60387;49.994;14.660;2022-10-31T00:11:14;98173.91;;;13.03;64.72
71915;BME280;60387;49.994;14.660;2022-10-31T00:13:50;98175.31;;;13.01;64.52
71915;BME280;60387;49.994;14.660;2022-10-31T00:16:24;98180.53;;;12.97;64.29
71915;BME280;60387;49.994;14.660;2022-10-31T00:19:01;98180.06;;;12.95;63.89
71915;BME280;60387;49.994;14.660;2022-10-31T00:21:35;98177.94;;;12.92;64.10
71915;BME280;60387;49.994;14.660;2022-10-31T00:24:08;98179.03;;;12.91;64.50
71915;BME280;60387;49.994;14.660;2022-10-31T00:26:41;98175.22;;;12.92;64.16
71915;BME280;60387;49.994;14.660;2022-10-31T00:29:15;98172.50;;;12.92;64.22
71915;BME280;60387;49.994;14.660;2022-10-31T00:31:48;98180.13;;;12.90;64.19
71915;BME280;60387;49.994;14.660;2022-10-31T00:34:21;98176.91;;;12.88;64.19
71915;BME280;60387;49.994;14.660;2022-10-31T00:36:54;98167.03;;;12.92;64.11
71915;BME280;60387;49.994;14.660;2022-10-31T00:39:28;98171.97;;;12.90;63.82
71915;BME280;60387;49.994;14.660;2022-10-31T00:42:01;98166.03;;;12.88;64.13
71915;BME280;60387;49.994;14.660;2022-10-31T00:44:34;98171.47;;;12.88;64.42
71915;BME280;60387;49.994;14.660;2022-10-31T00:47:07;98172.59;;;12.87;64.04
71915;BME280;60387;49.994;14.660;2022-10-31T00:49:41;98165.06;;;12.84;64.26
71915;BME280;60387;49.994;14.660;2022-10-31T00:52:14;98171.06;;;12.81;64.16
71915;BME280;60387;49.994;14.660;2022-10-31T00:54:47;98166.75;;;12.80;64.10
71915;BME280;60387;49.994;14.660;2022-10-31T00:57:20;98171.59;;;12.83;64.00
71915;BME280;60387;49.994;14.660;2022-10-31T00:59:54;98168.34;;;12.81;63.72
71915;BME280;60387;49.994;14.660;2022-10-31T01:02:27;98167.56;;;12.81;64.13
71915;BME280;60387;49.994;14.660;2022-10-31T01:05:00;98172.19;;;12.80;63.90
71915;BME280;60387;49.994;14.660;2022-10-31T01:07:37;98176.03;;;12.79;64.35
71915;BME280;60387;49.994;14.660;2022-10-31T01:10:11;98176.63;;;12.77;63.80
71915;BME280;60387;49.994;14.660;2022-10-31T01:12:47;98180.47;;;12.76;64.18
71915;BME280;60387;49.994;14.660;2022-10-31T01:15:22;98176.72;;;12.72;63.72
71915;BME280;60387;49.994;14.660;2022-10-31T01:17:55;98185.78;;;12.67;64.01
71915;BME280;60387;49.994;14.660;2022-10-31T01:20:29;98180.69;;;12.66;64.30
71915;BME280;60387;49.994;14.660;2022-10-31T01:23:02;98176.66;;;12.63;63.99
71915;BME280;60387;49.994;14.660;2022-10-31T01:25:35;98189.53;;;12.58;63.93
71915;BME280;60387;49.994;14.660;2022-10-31T01:28:08;98183.09;;;12.54;64.17
71915;BME280;60387;49.994;14.660;2022-10-31T01:30:42;98185.31;;;12.52;64.07
71915;BME280;60387;49.994;14.660;2022-10-31T01:33:15;98181.56;;;12.48;63.86
71915;BME280;60387;49.994;14.660;2022-10-31T01:35:48;98186.22;;;12.47;64.07
71915;BME280;60387;49.994;14.660;2022-10-31T01:38:21;98173.81;;;12.41;63.88
71915;BME280;60387;49.994;14.660;2022-10-31T01:40:55;98174.22;;;12.35;64.35
71915;BME280;60387;49.994;14.660;2022-10-31T01:49:13;98183.50;;;12.34;63.86
71915;BME280;60387;49.994;14.660;2022-10-31T01:51:54;98188.09;;;12.33;64.08
71915;BME280;60387;49.994;14.660;2022-10-31T01:54:32;98182.66;;;12.33;64.04
71915;BME280;60387;49.994;14.660;2022-10-31T01:57:08;98182.19;;;12.31;64.01
71915;BME280;60387;49.994;14.660;2022-10-31T01:59:47;98183.28;;;12.30;64.05
71915;BME280;60387;49.994;14.660;2022-10-31T02:02:22;98181.47;;;12.26;63.84
71915;BME280;60387;49.994;14.660;2022-10-31T02:04:58;98175.00;;;12.22;64.30
71915;BME280;60387;49.994;14.660;2022-10-31T02:10:36;98197.75;;;12.26;63.98
71915;BME280;60387;49.994;14.660;2022-10-31T02:13:10;98186.91;;;12.26;64.31
71915;BME280;60387;49.994;14.660;2022-10-31T02:15:45;98186.69;;;12.22;64.32
71915;BME280;60387;49.994;14.660;2022-10-31T02:18:20;98184.38;;;12.16;63.89
71915;BME280;60387;49.994;14.660;2022-10-31T02:21:19;98185.38;;;12.20;64.25
71915;BME280;60387;49.994;14.660;2022-10-31T02:24:05;98176.22;;;12.16;65.69
71915;BME280;60387;49.994;14.660;2022-10-31T02:30:18;98184.47;;;12.11;65.40
71915;BME280;60387;49.994;14.660;2022-10-31T02:38:46;98179.81;;;11.98;65.13
71915;BME280;60387;49.994;14.660;2022-10-31T02:44:30;98177.59;;;11.86;65.37
71915;BME280;60387;49.994;14.660;2022-10-31T02:47:12;98171.72;;;11.79;65.17
71915;BME280;60387;49.994;14.660;2022-10-31T02:52:41;98173.81;;;11.69;65.69
71915;BME280;60387;49.994;14.660;2022-10-31T02:58:13;98175.13;;;11.71;65.14
71915;BME280;60387;49.994;14.660;2022-10-31T03:06:44;98185.75;;;11.68;64.89
71915;BME280;60387;49.994;14.660;2022-10-31T03:09:26;98191.78;;;11.65;65.07
71915;BME280;60387;49.994;14.660;2022-10-31T03:15:14;98191.94;;;11.55;64.86
71915;BME280;60387;49.994;14.660;2022-10-31T03:18:08;98186.72;;;11.58;64.75
71915;BME280;60387;49.994;14.660;2022-10-31T03:20:45;98186.72;;;11.58;64.68
71915;BME280;60387;49.994;14.660;2022-10-31T03:23:22;98191.94;;;11.55;64.92
71915;BME280;60387;49.994;14.660;2022-10-31T03:26:00;98175.44;;;11.51;65.03
71915;BME280;60387;49.994;14.660;2022-10-31T03:28:46;98190.28;;;11.54;64.80
71915;BME280;60387;49.994;14.660;2022-10-31T03:31:26;98187.06;;;11.52;64.55
71915;BME280;60387;49.994;14.660;2022-10-31T03:34:02;98194.09;;;11.53;64.65
71915;BME280;60387;49.994;14.660;2022-10-31T03:36:38;98191.19;;;11.49;64.58
71915;BME280;60387;49.994;14.660;2022-10-31T03:39:14;98198.53;;;11.49;64.69
71915;BME280;60387;49.994;14.660;2022-10-31T03:41:59;98196.09;;;11.47;64.53
71915;BME280;60387;49.994;14.660;2022-10-31T03:44:34;98194.78;;;11.45;64.49
71915;BME280;60387;49.994;14.660;2022-10-31T03:47:08;98191.06;;;11.41;64.86
71915;BME280;60387;49.994;14.660;2022-10-31T03:49:41;98192.16;;;11.40;64.46
71915;BME280;60387;49.994;14.660;2022-10-31T03:52:33;98194.38;;;11.38;64.48
71915;BME280;60387;49.994;14.660;2022-10-31T03:55:23;98201.97;;;11.36;64.78
71915;BME280;60387;49.994;14.660;2022-10-31T03:58:04;98204.25;;;11.29;64.55
71915;BME280;60387;49.994;14.660;2022-10-31T04:00:42;98198.09;;;11.23;64.63
71915;BME280;60387;49.994;14.660;2022-10-31T04:03:22;98204.41;;;11.19;64.93
71915;BME280;60387;49.994;14.660;2022-10-31T04:06:02;98203.38;;;11.15;64.58
71915;BME280;60387;49.994;14.660;2022-10-31T04:08:40;98210.47;;;11.11;64.60
71915;BME280;60387;49.994;14.660;2022-10-31T04:11:17;98213.19;;;11.11;65.13
71915;BME280;60387;49.994;14.660;2022-10-31T04:13:53;98217.00;;;11.10;64.45
71915;BME280;60387;49.994;14.660;2022-10-31T04:16:27;98214.06;;;11.06;64.90
71915;BME280;60387;49.994;14.660;2022-10-31T04:19:01;98215.16;;;11.05;65.03
71915;BME280;60387;49.994;14.660;2022-10-31T04:21:34;98211.44;;;11.01;64.57
71915;BME280;60387;49.994;14.660;2022-10-31T04:24:07;98209.28;;;10.98;64.86
71915;BME280;60387;49.994;14.660;2022-10-31T04:26:40;98207.69;;;10.97;64.82
71915;BME280;60387;49.994;14.660;2022-10-31T04:29:14;98212.88;;;10.94;64.59
71915;BME280;60387;49.994;14.660;2022-10-31T04:31:47;98210.25;;;10.89;65.12
71915;BME280;60387;49.994;14.660;2022-10-31T04:34:20;98217.03;;;10.86;64.95
71915;BME280;60387;49.994;14.660;2022-10-31T04:36:53;98214.38;;;10.81;65.29
71915;BME280;60387;49.994;14.660;2022-10-31T04:39:27;98222.84;;;10.80;65.19
71915;BME280;60387;49.994;14.660;2022-10-31T04:42:00;98221.88;;;10.71;64.94
71915;BME280;60387;49.994;14.660;2022-10-31T04:44:33;98233.22;;;10.73;65.29
71915;BME280;60387;49.994;14.660;2022-10-31T04:47:07;98235.41;;;10.71;64.72
71915;BME280;60387;49.994;14.660;2022-10-31T04:49:40;98237.31;;;10.70;65.41
71915;BME280;60387;49.994;14.660;2022-10-31T04:52:13;98240.00;;;10.70;64.97
71915;BME280;60387;49.994;14.660;2022-10-31T04:54:46;98231.66;;;10.67;65.36
71915;BME280;60387;49.994;14.660;2022-10-31T04:57:20;98240.59;;;10.67;65.20
71915;BME280;60387;49.994;14.660;2022-10-31T04:59:53;98234.34;;;10.67;65.51
71915;BME280;60387;49.994;14.660;2022-10-31T05:02:26;98232.22;;;10.64;65.33
71915;BME280;60387;49.994;14.660;2022-10-31T05:04:59;98237.16;;;10.62;65.01
71915;BME280;60387;49.994;14.660;2022-10-31T05:07:33;98231.50;;;10.58;65.50
71915;BME280;60387;49.994;14.660;2022-10-31T05:10:06;98233.63;;;10.61;65.42
71915;BME280;60387;49.994;14.660;2022-10-31T05:12:56;98232.28;;;10.59;65.36
71915;BME280;60387;49.994;14.660;2022-10-31T05:15:30;98245.53;;;10.60;65.30
71915;BME280;60387;49.994;14.660;2022-10-31T05:18:03;98247.44;;;10.60;65.26
71915;BME280;60387;49.994;14.660;2022-10-31T05:20:37;98242.31;;;10.58;65.21
71915;BME280;60387;49.994;14.660;2022-10-31T05:23:10;98238.00;;;10.57;64.76
71915;BME280;60387;49.994;14.660;2022-10-31T05:25:43;98229.34;;;10.55;65.26
71915;BME280;60387;49.994;14.660;2022-10-31T05:28:17;98233.72;;;10.51;65.29
71915;BME280;60387;49.994;14.660;2022-10-31T05:30:50;98237.81;;;10.49;65.04
71915;BME280;60387;49.994;14.660;2022-10-31T05:33:23;98241.13;;;10.46;65.50
71915;BME280;60387;49.994;14.660;2022-10-31T05:35:56;98240.06;;;10.42;65.20
71915;BME280;60387;49.994;14.660;2022-10-31T05:38:30;98240.38;;;10.40;65.13
71915;BME280;60387;49.994;14.660;2022-10-31T05:41:03;98237.94;;;10.39;65.68
71915;BME280;60387;49.994;14.660;2022-10-31T05:43:36;98237.41;;;10.37;66.03
71915;BME280;60387;49.994;14.660;2022-10-31T05:46:10;98245.00;;;10.35;65.43
71915;BME280;60387;49.994;14.660;2022-10-31T05:48:43;98239.06;;;10.33;65.58
71915;BME280;60387;49.994;14.660;2022-10-31T05:51:16;98239.38;;;10.31;65.66
71915;BME280;60387;49.994;14.660;2022-10-31T05:53:49;98243.97;;;10.31;65.74
71915;BME280;60387;49.994;14.660;2022-10-31T05:56:23;98238.31;;;10.27;65.66
71915;BME280;60387;49.994;14.660;2022-10-31T05:58:56;98223.22;;;10.21;66.03
71915;BME280;60387;49.994;14.660;2022-10-31T06:01:29;98243.50;;;10.24;66.07
71915;BME280;60387;49.994;14.660;2022-10-31T06:04:03;98242.47;;;10.20;66.35
71915;BME280;60387;49.994;14.660;2022-10-31T06:06:36;98244.88;;;10.21;66.64
71915;BME280;60387;49.994;14.660;2022-10-31T06:09:09;98253.22;;;10.25;66.00
71915;BME280;60387;49.994;14.660;2022-10-31T06:11:42;98249.16;;;10.27;65.97
71915;BME280;60387;49.994;14.660;2022-10-31T06:14:15;98248.88;;;10.29;66.21
71915;BME280;60387;49.994;14.660;2022-10-31T06:16:49;98251.88;;;10.27;66.12
71915;BME280;60387;49.994;14.660;2022-10-31T06:19:22;98260.72;;;10.33;66.71
71915;BME280;60387;49.994;14.660;2022-10-31T06:21:55;98250.41;;;10.35;66.78
71915;BME280;60387;49.994;14.660;2022-10-31T06:24:29;98254.47;;;10.37;66.28
71915;BME280;60387;49.994;14.660;2022-10-31T06:27:02;98260.63;;;10.43;66.37
71915;BME280;60387;49.994;14.660;2022-10-31T06:29:35;98266.50;;;10.50;65.89
71915;BME280;60387;49.994;14.660;2022-10-31T06:32:10;98257.75;;;10.58;66.13
71915;BME280;60387;49.994;14.660;2022-10-31T06:34:43;98266.81;;;10.72;66.17
71915;BME280;60387;49.994;14.660;2022-10-31T06:37:17;98265.00;;;10.86;65.79
71915;BME280;60387;49.994;14.660;2022-10-31T06:39:50;98263.50;;;10.98;65.72
71915;BME280;60387;49.994;14.660;2022-10-31T06:42:23;98264.03;;;11.19;65.62
71915;BME280;60387;49.994;14.660;2022-10-31T06:44:57;98266.50;;;11.39;66.10
71915;BME280;60387;49.994;14.660;2022-10-31T06:47:30;98260.81;;;11.59;65.61
71915;BME280;60387;49.994;14.660;2022-10-31T06:50:03;98257.19;;;11.82;65.40
71915;BME280;60387;49.994;14.660;2022-10-31T06:52:37;98272.03;;;12.03;65.45
71915;BME280;60387;49.994;14.660;2022-10-31T06:55:10;98275.50;;;12.22;65.30
71915;BME280;60387;49.994;14.660;2022-10-31T06:57:49;98279.78;;;12.41;65.31
71915;BME280;60387;49.994;14.660;2022-10-31T07:00:23;98288.38;;;12.62;65.23
71915;BME280;60387;49.994;14.660;2022-10-31T07:02:59;98280.44;;;12.78;65.05
71915;BME280;60387;49.994;14.660;2022-10-31T07:05:33;98282.03;;;12.93;65.11
71915;BME280;60387;49.994;14.660;2022-10-31T07:08:08;98293.66;;;13.12;64.88
71915;BME280;60387;49.994;14.660;2022-10-31T07:10:43;98294.56;;;13.34;64.81
71915;BME280;60387;49.994;14.660;2022-10-31T07:13:16;98276.94;;;13.54;64.74
71915;BME280;60387;49.994;14.660;2022-10-31T07:15:49;98289.38;;;13.82;64.37
71915;BME280;60387;49.994;14.660;2022-10-31T07:18:22;98293.72;;;14.05;64.42
71915;BME280;60387;49.994;14.660;2022-10-31T07:20:56;98291.97;;;14.22;64.23
71915;BME280;60387;49.994;14.660;2022-10-31T07:23:29;98287.59;;;14.43;64.17
71915;BME280;60387;49.994;14.660;2022-10-31T07:26:02;98295.44;;;14.67;63.71
71915;BME280;60387;49.994;14.660;2022-10-31T07:28:36;98289.25;;;14.83;63.46
71915;BME280;60387;49.994;14.660;2022-10-31T07:31:09;98297.50;;;15.00;63.39
71915;BME280;60387;49.994;14.660;2022-10-31T07:33:42;98295.47;;;15.14;63.46
71915;BME280;60387;49.994;14.660;2022-10-31T07:36:15;98293.78;;;15.35;63.65
71915;BME280;60387;49.994;14.660;2022-10-31T07:38:49;98285.31;;;15.62;63.67
71915;BME280;60387;49.994;14.660;2022-10-31T07:41:22;98294.19;;;15.93;63.72
71915;BME280;60387;49.994;14.660;2022-10-31T07:43:56;98293.84;;;16.20;63.38
71915;BME280;60387;49.994;14.660;2022-10-31T07:46:29;98294.47;;;16.51;63.27
71915;BME280;60387;49.994;14.660;2022-10-31T07:49:02;98290.22;;;16.79;62.60
71915;BME280;60387;49.994;14.660;2022-10-31T07:51:35;98294.72;;;17.12;62.67
71915;BME280;60387;49.994;14.660;2022-10-31T07:54:08;98300.13;;;17.38;62.46
71915;BME280;60387;49.994;14.660;2022-10-31T07:56:42;98297.56;;;17.62;62.03
71915;BME280;60387;49.994;14.660;2022-10-31T07:59:15;98297.22;;;17.84;61.87
71915;BME280;60387;49.994;14.660;2022-10-31T08:01:48;98302.38;;;18.06;61.95
71915;BME280;60387;49.994;14.660;2022-10-31T08:04:21;98297.03;;;18.30;61.77
71915;BME280;60387;49.994;14.660;2022-10-31T08:06:55;98295.31;;;18.58;61.33
71915;BME280;60387;49.994;14.660;2022-10-31T08:09:28;98304.53;;;18.86;61.38
71915;BME280;60387;49.994;14.660;2022-10-31T08:12:01;98304.56;;;19.10;61.21
71915;BME280;60387;49.994;14.660;2022-10-31T08:14:35;98308.72;;;19.40;60.74
71915;BME280;60387;49.994;14.660;2022-10-31T08:17:08;98312.72;;;19.66;60.67
71915;BME280;60387;49.994;14.660;2022-10-31T08:19:41;98312.69;;;19.90;60.24
71915;BME280;60387;49.994;14.660;2022-10-31T08:22:14;98308.63;;;20.11;59.53
71915;BME280;60387;49.994;14.660;2022-10-31T08:24:47;98315.56;;;20.33;59.34
71915;BME280;60387;49.994;14.660;2022-10-31T08:27:21;98308.97;;;20.49;58.91
71915;BME280;60387;49.994;14.660;2022-10-31T08:29:54;98307.03;;;20.65;57.80
71915;BME280;60387;49.994;14.660;2022-10-31T08:32:27;98296.66;;;20.74;58.50
71915;BME280;60387;49.994;14.660;2022-10-31T08:35:00;98303.84;;;20.91;58.26
71915;BME280;60387;49.994;14.660;2022-10-31T08:37:34;98308.91;;;21.04;58.13
71915;BME280;60387;49.994;14.660;2022-10-31T08:40:07;98315.66;;;21.22;58.04
71915;BME280;60387;49.994;14.660;2022-10-31T08:42:41;98317.63;;;21.37;57.61
71915;BME280;60387;49.994;14.660;2022-10-31T08:45:14;98315.56;;;21.50;57.86
71915;BME280;60387;49.994;14.660;2022-10-31T08:47:47;98306.56;;;21.68;57.56
71915;BME280;60387;49.994;14.660;2022-10-31T08:50:20;98314.44;;;21.85;56.63
71915;BME280;60387;49.994;14.660;2022-10-31T08:52:59;98314.44;;;22.01;56.55
71915;BME280;60387;49.994;14.660;2022-10-31T08:55:34;98309.16;;;22.11;55.01
71915;BME280;60387;49.994;14.660;2022-10-31T08:58:15;98307.69;;;22.17;55.19
71915;BME280;60387;49.994;14.660;2022-10-31T09:00:52;98305.06;;;22.24;53.82
71915;BME280;60387;49.994;14.660;2022-10-31T09:03:29;98305.28;;;22.35;54.82
71915;BME280;60387;49.994;14.660;2022-10-31T09:06:03;98295.66;;;22.44;54.35
71915;BME280;60387;49.994;14.660;2022-10-31T09:08:36;98296.69;;;22.55;54.91
71915;BME280;60387;49.994;14.660;2022-10-31T09:11:10;98306.94;;;22.77;55.20
71915;BME280;60387;49.994;14.660;2022-10-31T09:13:43;98300.88;;;22.91;54.48
71915;BME280;60387;49.994;14.660;2022-10-31T09:16:16;98306.31;;;23.06;53.25
71915;BME280;60387;49.994;14.660;2022-10-31T09:18:49;98308.97;;;23.22;52.92
71915;BME280;60387;49.994;14.660;2022-10-31T09:21:23;98306.81;;;23.34;54.00
71915;BME280;60387;49.994;14.660;2022-10-31T09:23:56;98305.50;;;23.50;53.90
71915;BME280;60387;49.994;14.660;2022-10-31T09:26:29;98306.97;;;23.67;52.81
71915;BME280;60387;49.994;14.660;2022-10-31T09:29:02;98290.09;;;23.75;52.79
71915;BME280;60387;49.994;14.660;2022-10-31T09:31:36;98303.88;;;23.94;51.96
71915;BME280;60387;49.994;14.660;2022-10-31T09:34:09;98315.88;;;24.05;51.42
71915;BME280;60387;49.994;14.660;2022-10-31T09:36:42;98312.03;;;24.13;52.25
71915;BME280;60387;49.994;14.660;2022-10-31T09:39:15;98311.00;;;24.25;50.58
71915;BME280;60387;49.994;14.660;2022-10-31T09:50:20;98309.66;;;24.74;51.59
71915;BME280;60387;49.994;14.660;2022-10-31T09:53:06;98313.78;;;24.91;50.37
71915;BME280;60387;49.994;14.660;2022-10-31T09:55:47;98316.28;;;25.03;50.59
71915;BME280;60387;49.994;14.660;2022-10-31T09:58:27;98322.66;;;25.07;47.98
71915;BME280;60387;49.994;14.660;2022-10-31T10:01:05;98312.69;;;24.99;48.13
71915;BME280;60387;49.994;14.660;2022-10-31T10:03:44;98296.44;;;24.97;50.13
71915;BME280;60387;49.994;14.660;2022-10-31T10:06:29;98324.44;;;25.22;50.19
71915;BME280;60387;49.994;14.660;2022-10-31T10:09:10;98315.03;;;25.33;49.30
71915;BME280;60387;49.994;14.660;2022-10-31T10:15:27;98308.44;;;25.48;49.83
71915;BME280;60387;49.994;14.660;2022-10-31T10:21:11;98311.34;;;25.69;48.97
71915;BME280;60387;49.994;14.660;2022-10-31T10:24:05;98312.59;;;25.75;47.32
71915;BME280;60387;49.994;14.660;2022-10-31T10:27:00;98313.41;;;25.79;48.65
71915;BME280;60387;49.994;14.660;2022-10-31T10:29:53;98305.56;;;25.88;47.77
71915;BME280;60387;49.994;14.660;2022-10-31T10:32:30;98304.06;;;25.98;48.28
71915;BME280;60387;49.994;14.660;2022-10-31T10:35:29;98298.09;;;25.96;46.84
71915;BME280;60387;49.994;14.660;2022-10-31T10:40:52;98298.91;;;26.00;47.52
71915;BME280;60387;49.994;14.660;2022-10-31T10:43:33;98289.78;;;25.99;46.44
71915;BME280;60387;49.994;14.660;2022-10-31T10:46:25;98291.81;;;26.06;46.55
71915;BME280;60387;49.994;14.660;2022-10-31T10:49:21;98296.59;;;26.12;45.79
71915;BME280;60387;49.994;14.660;2022-10-31T10:57:22;98280.31;;;26.11;44.73
71915;BME280;60387;49.994;14.660;2022-10-31T11:00:19;98285.91;;;26.18;45.32
71915;BME280;60387;49.994;14.660;2022-10-31T11:02:53;98277.59;;;26.25;45.02
71915;BME280;60387;49.994;14.660;2022-10-31T11:05:47;98274.47;;;26.30;44.65
71915;BME280;60387;49.994;14.660;2022-10-31T11:08:35;98276.44;;;26.29;44.66
71915;BME280;60387;49.994;14.660;2022-10-31T11:13:49;98269.22;;;26.18;44.69
71915;BME280;60387;49.994;14.660;2022-10-31T11:21:46;98265.63;;;26.07;45.20
71915;BME280;60387;49.994;14.660;2022-10-31T11:24:22;98273.59;;;26.12;44.79
71915;BME280;60387;49.994;14.660;2022-10-31T11:27:21;98274.81;;;26.25;44.23
71915;BME280;60387;49.994;14.660;2022-10-31T11:30:04;98276.41;;;26.26;44.20
71915;BME280;60387;49.994;14.660;2022-10-31T11:32:44;98267.28;;;26.22;43.71
71915;BME280;60387;49.994;14.660;2022-10-31T11:35:22;98273.63;;;26.22;43.56
71915;BME280;60387;49.994;14.660;2022-10-31T11:37:58;98269.63;;;26.20;44.40
71915;BME280;60387;49.994;14.660;2022-10-31T11:40:33;98260.09;;;26.14;43.55
71915;BME280;60387;49.994;14.660;2022-10-31T11:43:15;98262.88;;;26.14;43.82
71915;BME280;60387;49.994;14.660;2022-10-31T11:45:50;98252.91;;;26.06;43.81
71915;BME280;60387;49.994;14.660;2022-10-31T11:48:24;98263.97;;;25.95;43.77
71915;BME280;60387;49.994;14.660;2022-10-31T11:50:58;98250.78;;;25.82;44.42
71915;BME280;60387;49.994;14.660;2022-10-31T11:53:33;98250.31;;;25.73;44.79
71915;BME280;60387;49.994;14.660;2022-10-31T11:56:13;98242.78;;;25.73;44.78
71915;BME280;60387;49.994;14.660;2022-10-31T11:59:00;98241.50;;;25.60;44.10
71915;BME280;60387;49.994;14.660;2022-10-31T12:01:34;98234.34;;;25.56;44.75
71915;BME280;60387;49.994;14.660;2022-10-31T12:04:09;98226.06;;;25.63;45.06
71915;BME280;60387;49.994;14.660;2022-10-31T12:06:44;98226.94;;;25.74;43.69
71915;BME280;60387;49.994;14.660;2022-10-31T12:09:27;98213.88;;;25.81;44.53
71915;BME280;60387;49.994;14.660;2022-10-31T12:26:30;98210.03;;;25.96;44.25
71915;BME280;60387;49.994;14.660;2022-10-31T12:37:31;98203.00;;;25.52;44.08
71915;BME280;60387;49.994;14.660;2022-10-31T12:46:22;98193.75;;;25.34;45.01
71915;BME280;60387;49.994;14.660;2022-10-31T12:55:08;98191.94;;;25.05;45.42
71915;BME280;60387;49.994;14.660;2022-10-31T12:57:45;98187.19;;;25.09;45.51
71915;BME280;60387;49.994;14.660;2022-10-31T13:00:20;98186.44;;;25.08;45.64
71915;BME280;60387;49.994;14.660;2022-10-31T13:05:55;98175.19;;;24.91;45.36
71915;BME280;60387;49.994;14.660;2022-10-31T13:08:44;98172.78;;;24.86;45.66
71915;BME280;60387;49.994;14.660;2022-10-31T13:11:23;98176.28;;;24.83;45.86
71915;BME280;60387;49.994;14.660;2022-10-31T13:14:02;98165.63;;;24.81;45.70
71915;BME280;60387;49.994;14.660;2022-10-31T13:16:41;98167.22;;;24.86;45.40
71915;BME280;60387;49.994;14.660;2022-10-31T13:19:25;98174.34;;;24.83;45.84
71915;BME280;60387;49.994;14.660;2022-10-31T13:22:11;98167.16;;;24.79;45.36
71915;BME280;60387;49.994;14.660;2022-10-31T13:24:56;98169.06;;;24.68;45.80
71915;BME280;60387;49.994;14.660;2022-10-31T13:27:45;98172.91;;;24.56;46.18
71915;BME280;60387;49.994;14.660;2022-10-31T13:30:21;98160.47;;;24.43;46.76
71915;BME280;60387;49.994;14.660;2022-10-31T13:33:03;98164.78;;;24.37;46.76
71915;BME280;60387;49.994;14.660;2022-10-31T13:35:54;98155.97;;;24.32;46.55
71915;BME280;60387;49.994;14.660;2022-10-31T13:38:34;98157.06;;;24.20;46.88
71915;BME280;60387;49.994;14.660;2022-10-31T13:44:25;98149.28;;;23.96;46.40
71915;BME280;60387;49.994;14.660;2022-10-31T13:46:59;98150.63;;;23.80;46.62
71915;BME280;60387;49.994;14.660;2022-10-31T13:54:49;98140.72;;;23.20;47.69
71915;BME280;60387;49.994;14.660;2022-10-31T14:00:05;98135.69;;;23.03;48.16
71915;BME280;60387;49.994;14.660;2022-10-31T14:02:45;98142.19;;;22.88;48.37
71915;BME280;60387;49.994;14.660;2022-10-31T14:08:02;98134.03;;;22.50;48.25
71915;BME280;60387;49.994;14.660;2022-10-31T14:10:38;98132.91;;;22.32;48.85
71915;BME280;60387;49.994;14.660;2022-10-31T14:13:24;98128.06;;;22.07;49.17
71915;BME280;60387;49.994;14.660;2022-10-31T14:16:02;98127.00;;;21.92;49.35
71915;BME280;60387;49.994;14.660;2022-10-31T14:18:39;98121.66;;;21.80;49.57
71915;BME280;60387;49.994;14.660;2022-10-31T14:23:58;98108.88;;;21.53;49.57
71915;BME280;60387;49.994;14.660;2022-10-31T14:26:34;98110.91;;;21.37;50.15
71915;BME280;60387;49.994;14.660;2022-10-31T14:29:31;98103.19;;;21.27;50.12
71915;BME280;60387;49.994;14.660;2022-10-31T14:34:41;98092.44;;;21.03;50.29
71915;BME280;60387;49.994;14.660;2022-10-31T14:52:19;98087.59;;;20.66;50.88
71915;BME280;60387;49.994;14.660;2022-10-31T14:54:55;98093.72;;;20.59;51.22
71915;BME280;60387;49.994;14.660;2022-10-31T14:57:35;98076.13;;;20.48;51.16
71915;BME280;60387;49.994;14.660;2022-10-31T15:00:16;98080.69;;;20.41;51.23
71915;BME280;60387;49.994;14.660;2022-10-31T15:05:48;98075.00;;;20.18;50.99
71915;BME280;60387;49.994;14.660;2022-10-31T15:08:39;98080.94;;;20.05;51.45
71915;BME280;60387;49.994;14.660;2022-10-31T15:11:24;98086.84;;;19.91;51.55
71915;BME280;60387;49.994;14.660;2022-10-31T15:13:58;98066.88;;;19.79;51.79
71915;BME280;60387;49.994;14.660;2022-10-31T15:16:34;98074.47;;;19.70;51.78
71915;BME280;60387;49.994;14.660;2022-10-31T15:19:16;98069.41;;;19.57;52.09
71915;BME280;60387;49.994;14.660;2022-10-31T15:21:55;98066.25;;;19.43;52.23
71915;BME280;60387;49.994;14.660;2022-10-31T15:24:34;98069.03;;;19.31;52.23
71915;BME280;60387;49.994;14.660;2022-10-31T15:27:16;98067.56;;;19.21;52.43
71915;BME280;60387;49.994;14.660;2022-10-31T15:29:52;98062.09;;;19.09;52.44
71915;BME280;60387;49.994;14.660;2022-10-31T15:32:28;98061.66;;;18.95;52.92
71915;BME280;60387;49.994;14.660;2022-10-31T15:35:09;98060.34;;;18.77;53.20
71915;BME280;60387;49.994;14.660;2022-10-31T15:37:42;98062.50;;;18.60;52.88
71915;BME280;60387;49.994;14.660;2022-10-31T15:40:17;98060.81;;;18.43;53.00
71915;BME280;60387;49.994;14.660;2022-10-31T15:42:55;98061.94;;;18.30;53.10
71915;BME280;60387;49.994;14.660;2022-10-31T15:45:30;98072.56;;;18.20;53.29
71915;BME280;60387;49.994;14.660;2022-10-31T15:48:16;98070.59;;;18.08;53.31
71915;BME280;60387;49.994;14.660;2022-10-31T15:50:53;98069.78;;;17.96;53.58
71915;BME280;60387;49.994;14.660;2022-10-31T15:53:51;98063.13;;;17.85;53.21
71915;BME280;60387;49.994;14.660;2022-10-31T15:56:29;98065.06;;;17.72;53.50
71915;BME280;60387;49.994;14.660;2022-10-31T15:59:03;98062.84;;;17.66;53.81
71915;BME280;60387;49.994;14.660;2022-10-31T16:01:37;98067.16;;;17.55;53.50